createdAt,value
2022-09-17T00:00:47.974Z,1004.81
2022-09-17T00:01:48.172Z,1004.84
2022-09-17T00:02:48.318Z,1004.87
2022-09-17T00:03:48.455Z,1004.80
2022-09-17T00:04:48.624Z,1004.85
2022-09-17T00:05:48.775Z,1004.88
2022-09-17T00:06:48.974Z,1004.88
2022-09-17T00:07:49.132Z,1004.90
2022-09-17T00:08:49.339Z,1004.96
2022-09-17T00:09:49.494Z,1004.90
2022-09-17T00:10:49.662Z,1004.93
2022-09-17T00:11:49.814Z,1004.92
2022-09-17T00:12:50.004Z,1004.89
2022-09-17T00:13:50.417Z,1004.91
2022-09-17T00:14:50.337Z,1004.93
2022-09-17T00:15:50.530Z,1004.95
2022-09-17T00:16:50.667Z,1004.94
2022-09-17T00:17:50.855Z,1004.96
2022-09-17T00:18:51.074Z,1004.97
2022-09-17T00:19:51.224Z,1004.99
2022-09-17T00:20:51.423Z,1005.01
2022-09-17T00:21:51.584Z,1005.00
2022-09-17T00:22:51.749Z,1005.00
2022-09-17T00:23:51.922Z,1005.01
2022-09-17T00:24:52.074Z,1005.10
2022-09-17T00:25:52.286Z,1005.08
2022-09-17T00:26:52.444Z,1005.01
2022-09-17T00:27:52.635Z,1005.06
2022-09-17T00:28:52.813Z,1005.03
2022-09-17T00:29:52.973Z,1005.04
2022-09-17T00:30:53.176Z,1005.11
2022-09-17T00:31:53.324Z,1005.07
2022-09-17T00:32:53.477Z,1005.06
2022-09-17T00:33:53.645Z,1005.08
2022-09-17T00:34:53.842Z,1005.08
2022-09-17T00:35:53.998Z,1005.08
2022-09-17T00:36:54.156Z,1005.15
2022-09-17T00:37:54.328Z,1005.11
2022-09-17T00:38:54.484Z,1005.15
2022-09-17T00:39:54.678Z,1005.15
2022-09-17T00:40:54.834Z,1005.15
2022-09-17T00:41:55.024Z,1005.14
2022-09-17T00:42:55.184Z,1005.19
2022-09-17T00:43:55.415Z,1005.18
2022-09-17T00:44:55.566Z,1005.20
2022-09-17T00:45:55.764Z,1005.19
2022-09-17T00:46:55.979Z,1005.17
2022-09-17T00:47:56.125Z,1005.24
2022-09-17T00:48:56.287Z,1005.24
2022-09-17T00:49:56.443Z,1005.23
2022-09-17T00:50:56.604Z,1005.28
2022-09-17T00:52:00.271Z,1005.25
2022-09-17T00:52:56.944Z,1005.23
2022-09-17T00:53:57.154Z,1005.26
2022-09-17T00:54:57.322Z,1005.30
2022-09-17T00:55:57.474Z,1005.26
2022-09-17T00:56:57.631Z,1005.31
2022-09-17T00:57:57.800Z,1005.26
2022-09-17T00:58:58.006Z,1005.30
2022-09-17T00:59:58.148Z,1005.27
2022-09-17T01:00:58.370Z,1005.31
2022-09-17T01:01:58.549Z,1005.32
2022-09-17T01:02:58.681Z,1005.31
2022-09-17T01:03:58.853Z,1005.34
2022-09-17T01:04:59.022Z,1005.35
2022-09-17T01:05:59.217Z,1005.33
2022-09-17T01:06:59.378Z,1005.31
2022-09-17T01:07:59.536Z,1005.38
2022-09-17T01:08:59.708Z,1005.37
2022-09-17T01:09:59.874Z,1005.36
2022-09-17T01:11:00.024Z,1005.33
2022-09-17T01:12:00.232Z,1005.37
2022-09-17T01:13:00.384Z,1005.34
2022-09-17T01:14:00.584Z,1005.35
2022-09-17T01:15:00.744Z,1005.37
2022-09-17T01:16:01.023Z,1005.38
2022-09-17T01:17:01.117Z,1005.35
2022-09-17T01:18:01.315Z,1005.35
2022-09-17T01:19:01.484Z,1005.34
2022-09-17T01:20:01.662Z,1005.38
2022-09-17T01:21:01.811Z,1005.33
2022-09-17T01:22:02.014Z,1005.40
2022-09-17T01:23:02.172Z,1005.36
2022-09-17T01:24:02.344Z,1005.38
2022-09-17T01:25:02.503Z,1005.35
2022-09-17T01:26:02.664Z,1005.39
2022-09-17T01:27:02.824Z,1005.35
2022-09-17T01:28:03.022Z,1005.36
2022-09-17T01:29:03.193Z,1005.35
2022-09-17T01:30:03.358Z,1005.38
2022-09-17T01:31:03.550Z,1005.40
2022-09-17T01:32:03.684Z,1005.39
2022-09-17T01:33:03.844Z,1005.39
2022-09-17T01:34:04.054Z,1005.35
2022-09-17T01:35:04.214Z,1005.37
2022-09-17T01:36:04.405Z,1005.39
2022-09-17T01:37:04.563Z,1005.40
2022-09-17T01:38:04.771Z,1005.40
2022-09-17T01:39:04.944Z,1005.38
2022-09-17T01:40:05.145Z,1005.38
2022-09-17T01:41:05.275Z,1005.45
2022-09-17T01:42:05.472Z,1005.44
2022-09-17T01:43:05.624Z,1005.43
2022-09-17T01:44:05.834Z,1005.43
2022-09-17T01:45:05.984Z,1005.38
2022-09-17T01:46:06.213Z,1005.42
2022-09-17T01:47:06.335Z,1005.43
2022-09-17T01:48:06.523Z,1005.43
2022-09-17T01:49:06.701Z,1005.44
2022-09-17T01:50:06.855Z,1005.47
2022-09-17T01:51:07.014Z,1005.44
2022-09-17T01:52:07.214Z,1005.47
2022-09-17T01:53:07.364Z,1005.45
2022-09-17T01:54:07.575Z,1005.46
2022-09-17T01:55:07.729Z,1005.45
2022-09-17T01:56:07.922Z,1005.44
2022-09-17T01:57:08.074Z,1005.50
2022-09-17T01:58:08.282Z,1005.50
2022-09-17T01:59:08.452Z,1005.47
2022-09-17T02:00:08.616Z,1005.50
2022-09-17T02:01:08.821Z,1005.50
2022-09-17T02:02:08.987Z,1005.53
2022-09-17T02:03:09.104Z,1005.49
2022-09-17T02:04:09.315Z,1005.55
2022-09-17T02:05:09.474Z,1005.50
2022-09-17T02:06:09.674Z,1005.53
2022-09-17T02:07:09.826Z,1005.49
2022-09-17T02:08:10.015Z,1005.53
2022-09-17T02:09:13.742Z,1005.53
2022-09-17T02:10:11.364Z,1005.54
2022-09-17T02:11:10.554Z,1005.54
2022-09-17T02:12:10.721Z,1005.53
2022-09-17T02:13:10.874Z,1005.53
2022-09-17T02:14:11.055Z,1005.50
2022-09-17T02:15:11.215Z,1005.51
2022-09-17T02:16:11.411Z,1005.48
2022-09-17T02:17:11.554Z,1005.51
2022-09-17T02:18:11.765Z,1005.49
2022-09-17T02:19:11.924Z,1005.54
2022-09-17T02:20:12.085Z,1005.53
2022-09-17T02:21:12.244Z,1005.48
2022-09-17T02:22:12.404Z,1005.53
2022-09-17T02:23:12.574Z,1005.47
2022-09-17T02:24:12.735Z,1005.49
2022-09-17T02:25:12.893Z,1005.49
2022-09-17T02:26:13.094Z,1005.47
2022-09-17T02:27:13.257Z,1005.46
2022-09-17T02:28:13.472Z,1005.48
2022-09-17T02:29:13.624Z,1005.48
2022-09-17T02:30:13.794Z,1005.50
2022-09-17T02:31:14.002Z,1005.52
2022-09-17T02:32:14.147Z,1005.52
2022-09-17T02:33:14.315Z,1005.48
2022-09-17T02:34:14.474Z,1005.55
2022-09-17T02:35:14.654Z,1005.52
2022-09-17T02:36:14.851Z,1005.51
2022-09-17T02:37:15.005Z,1005.55
2022-09-17T02:38:15.201Z,1005.52
2022-09-17T02:39:15.384Z,1005.51
2022-09-17T02:40:15.598Z,1005.54
2022-09-17T02:41:15.725Z,1005.54
2022-09-17T02:42:15.884Z,1005.52
2022-09-17T02:43:16.051Z,1005.56
2022-09-17T02:44:16.215Z,1005.54
2022-09-17T02:45:16.374Z,1005.54
2022-09-17T02:46:16.590Z,1005.55
2022-09-17T02:47:16.722Z,1005.55
2022-09-17T02:48:16.944Z,1005.53
2022-09-17T02:49:17.095Z,1005.52
2022-09-17T02:50:17.293Z,1005.46
2022-09-17T02:51:17.455Z,1005.53
2022-09-17T02:52:17.604Z,1005.49
2022-09-17T02:53:17.786Z,1005.52
2022-09-17T02:54:17.944Z,1005.50
2022-09-17T02:55:18.094Z,1005.52
2022-09-17T02:56:18.315Z,1005.51
2022-09-17T02:57:18.474Z,1005.53
2022-09-17T02:58:18.656Z,1005.55
2022-09-17T02:59:18.813Z,1005.49
2022-09-17T03:00:19.014Z,1005.53
2022-09-17T03:01:19.224Z,1005.50
2022-09-17T03:02:19.416Z,1005.46
2022-09-17T03:03:19.505Z,1005.53
2022-09-17T03:04:19.666Z,1005.50
2022-09-17T03:05:19.832Z,1005.51
2022-09-17T03:06:20.025Z,1005.52
2022-09-17T03:07:20.189Z,1005.46
2022-09-17T03:08:20.368Z,1005.47
2022-09-17T03:09:20.534Z,1005.44
2022-09-17T03:10:20.722Z,1005.47
2022-09-17T03:11:20.874Z,1005.47
2022-09-17T03:12:21.065Z,1005.49
2022-09-17T03:13:21.264Z,1005.50
2022-09-17T03:14:21.424Z,1005.56
2022-09-17T03:15:21.586Z,1005.49
2022-09-17T03:16:21.824Z,1005.49
2022-09-17T03:17:21.936Z,1005.45
2022-09-17T03:18:22.145Z,1005.47
2022-09-17T03:19:22.304Z,1005.49
2022-09-17T03:20:22.486Z,1005.48
2022-09-17T03:21:22.615Z,1005.53
2022-09-17T03:22:22.813Z,1005.51
2022-09-17T03:23:23.016Z,1005.52
2022-09-17T03:24:23.137Z,1005.53
2022-09-17T03:25:23.294Z,1005.56
2022-09-17T03:26:23.466Z,1005.53
2022-09-17T03:27:23.624Z,1005.56
2022-09-17T03:28:23.806Z,1005.55
2022-09-17T03:29:23.964Z,1005.57
2022-09-17T03:30:24.125Z,1005.56
2022-09-17T03:31:24.320Z,1005.62
2022-09-17T03:32:24.475Z,1005.59
2022-09-17T03:33:24.646Z,1005.62
2022-09-17T03:34:24.805Z,1005.60
2022-09-17T03:35:24.995Z,1005.63
2022-09-17T03:36:25.135Z,1005.63
2022-09-17T03:37:25.289Z,1005.65
2022-09-17T03:38:25.507Z,1005.64
2022-09-17T03:39:25.667Z,1005.63
2022-09-17T03:40:25.877Z,1005.67
2022-09-17T03:41:26.003Z,1005.62
2022-09-17T03:42:26.195Z,1005.63
2022-09-17T03:43:26.374Z,1005.65
2022-09-17T03:44:26.534Z,1005.65
2022-09-17T03:45:26.685Z,1005.66
2022-09-17T03:46:26.884Z,1005.63
2022-09-17T03:47:27.006Z,1005.68
2022-09-17T03:48:27.215Z,1005.66
2022-09-17T03:49:27.375Z,1005.63
2022-09-17T03:50:27.535Z,1005.62
2022-09-17T03:51:27.705Z,1005.64
2022-09-17T03:52:27.867Z,1005.63
2022-09-17T03:53:28.035Z,1005.63
2022-09-17T03:54:28.202Z,1005.61
2022-09-17T03:55:28.358Z,1005.60
2022-09-17T03:56:28.555Z,1005.57
2022-09-17T03:57:28.716Z,1005.58
2022-09-17T03:58:28.895Z,1005.57
2022-09-17T03:59:29.055Z,1005.61
2022-09-17T04:00:29.216Z,1005.56
2022-09-17T04:01:29.423Z,1005.56
2022-09-17T04:02:29.650Z,1005.53
2022-09-17T04:03:29.746Z,1005.59
2022-09-17T04:04:29.938Z,1005.60
2022-09-17T04:05:30.095Z,1005.60
2022-09-17T04:06:30.255Z,1005.59
2022-09-17T04:07:30.425Z,1005.58
2022-09-17T04:08:30.585Z,1005.57
2022-09-17T04:09:30.745Z,1005.66
2022-09-17T04:10:30.905Z,1005.64
2022-09-17T04:11:31.065Z,1005.60
2022-09-17T04:12:31.245Z,1005.64
2022-09-17T04:13:31.397Z,1005.65
2022-09-17T04:14:31.587Z,1005.64
2022-09-17T04:15:31.797Z,1005.67
2022-09-17T04:16:31.978Z,1005.65
2022-09-17T04:17:32.125Z,1005.66
2022-09-17T04:18:32.343Z,1005.67
2022-09-17T04:19:32.477Z,1005.66
2022-09-17T04:20:32.625Z,1005.65
2022-09-17T04:21:32.789Z,1005.64
2022-09-17T04:22:32.995Z,1005.66
2022-09-17T04:23:33.148Z,1005.68
2022-09-17T04:24:33.343Z,1005.71
2022-09-17T04:25:33.496Z,1005.66
2022-09-17T04:26:33.688Z,1005.68
2022-09-17T04:27:33.875Z,1005.66
2022-09-17T04:28:34.015Z,1005.68
2022-09-17T04:29:34.186Z,1005.71
2022-09-17T04:30:34.376Z,1005.69
2022-09-17T04:31:34.667Z,1005.71
2022-09-17T04:32:34.735Z,1005.71
2022-09-17T04:33:34.875Z,1005.70
2022-09-17T04:34:35.055Z,1005.76
2022-09-17T04:35:35.236Z,1005.77
2022-09-17T04:36:35.424Z,1005.66
2022-09-17T04:37:35.625Z,1005.71
2022-09-17T04:38:35.765Z,1005.73
2022-09-17T04:39:35.945Z,1005.74
2022-09-17T04:40:36.190Z,1005.77
2022-09-17T04:41:36.295Z,1005.72
2022-09-17T04:42:36.486Z,1005.77
2022-09-17T04:43:36.639Z,1005.73
2022-09-17T04:44:36.816Z,1005.75
2022-09-17T04:45:37.001Z,1005.74
2022-09-17T04:46:37.195Z,1005.76
2022-09-17T04:47:37.366Z,1005.73
2022-09-17T04:48:37.495Z,1005.74
2022-09-17T04:49:37.686Z,1005.70
2022-09-17T04:50:37.865Z,1005.71
2022-09-17T04:51:38.047Z,1005.73
2022-09-17T04:52:38.216Z,1005.77
2022-09-17T04:53:38.364Z,1005.75
2022-09-17T04:54:38.545Z,1005.75
2022-09-17T04:55:38.725Z,1005.76
2022-09-17T04:56:38.896Z,1005.80
2022-09-17T04:57:39.072Z,1005.80
2022-09-17T04:58:39.245Z,1005.82
2022-09-17T04:59:39.416Z,1005.81
2022-09-17T05:00:39.632Z,1005.77
2022-09-17T05:01:39.850Z,1005.80
2022-09-17T05:02:39.928Z,1005.82
2022-09-17T05:03:40.105Z,1005.84
2022-09-17T05:04:40.255Z,1005.80
2022-09-17T05:05:40.445Z,1005.87
2022-09-17T05:06:41.620Z,1005.86
2022-09-17T05:07:40.796Z,1005.86
2022-09-17T05:08:40.947Z,1005.87
2022-09-17T05:09:41.135Z,1005.90
2022-09-17T05:10:41.325Z,1005.88
2022-09-17T05:11:41.527Z,1005.88
2022-09-17T05:12:41.672Z,1005.90
2022-09-17T05:13:41.849Z,1005.91
2022-09-17T05:14:42.036Z,1005.93
2022-09-17T05:15:42.295Z,1005.92
2022-09-17T05:16:42.413Z,1005.92
2022-09-17T05:17:42.557Z,1005.88
2022-09-17T05:18:42.736Z,1005.93
2022-09-17T05:19:42.915Z,1005.94
2022-09-17T05:20:43.096Z,1005.94
2022-09-17T05:21:43.305Z,1005.99
2022-09-17T05:22:43.438Z,1005.98
2022-09-17T05:23:43.626Z,1006.01
2022-09-17T05:24:43.796Z,1006.02
2022-09-17T05:25:43.944Z,1006.01
2022-09-17T05:26:44.145Z,1006.01
2022-09-17T05:27:44.286Z,1006.03
2022-09-17T05:28:44.475Z,1006.02
2022-09-17T05:29:44.667Z,1006.07
2022-09-17T05:30:44.815Z,1006.07
2022-09-17T05:31:45.054Z,1006.03
2022-09-17T05:32:45.162Z,1006.08
2022-09-17T05:33:45.325Z,1006.09
2022-09-17T05:34:45.509Z,1006.09
2022-09-17T05:35:45.695Z,1006.07
2022-09-17T05:36:45.886Z,1006.08
2022-09-17T05:37:46.058Z,1006.05
2022-09-17T05:38:46.282Z,1006.07
2022-09-17T05:39:46.418Z,1006.06
2022-09-17T05:40:47.581Z,1006.02
2022-09-17T05:41:46.807Z,1006.09
2022-09-17T05:42:46.957Z,1006.08
2022-09-17T05:43:47.147Z,1006.10
2022-09-17T05:44:47.335Z,1006.13
2022-09-17T05:45:47.516Z,1006.20
2022-09-17T05:46:48.300Z,1006.22
2022-09-17T05:47:47.847Z,1006.23
2022-09-17T05:48:48.006Z,1006.24
2022-09-17T05:49:48.204Z,1006.21
2022-09-17T05:50:48.382Z,1006.24
2022-09-17T05:51:48.556Z,1006.25
2022-09-17T05:52:48.716Z,1006.27
2022-09-17T05:53:49.043Z,1006.33
2022-09-17T05:54:49.058Z,1006.35
2022-09-17T05:55:49.225Z,1006.38
2022-09-17T05:56:49.415Z,1006.36
2022-09-17T05:57:49.557Z,1006.38
2022-09-17T05:58:49.835Z,1006.38
2022-09-17T05:59:49.926Z,1006.41
2022-09-17T06:00:50.127Z,1006.33
2022-09-17T06:01:50.326Z,1006.38
2022-09-17T06:02:50.467Z,1006.38
2022-09-17T06:03:50.607Z,1006.41
2022-09-17T06:04:50.786Z,1006.42
2022-09-17T06:05:50.976Z,1006.37
2022-09-17T06:06:51.175Z,1006.38
2022-09-17T06:07:51.325Z,1006.42
2022-09-17T06:08:51.489Z,1006.39
2022-09-17T06:09:51.655Z,1006.39
2022-09-17T06:10:51.837Z,1006.39
2022-09-17T06:11:52.046Z,1006.38
2022-09-17T06:12:52.216Z,1006.45
2022-09-17T06:13:52.405Z,1006.47
2022-09-17T06:14:52.586Z,1006.46
2022-09-17T06:15:52.780Z,1006.48
2022-09-17T06:16:52.935Z,1006.54
2022-09-17T06:17:53.095Z,1006.48
2022-09-17T06:18:53.251Z,1006.50
2022-09-17T06:19:53.416Z,1006.53
2022-09-17T06:20:53.599Z,1006.51
2022-09-17T06:21:53.796Z,1006.59
2022-09-17T06:22:53.946Z,1006.52
2022-09-17T06:23:54.126Z,1006.51
2022-09-17T06:24:54.296Z,1006.50
2022-09-17T06:25:54.476Z,1006.54
2022-09-17T06:26:54.667Z,1006.54
2022-09-17T06:27:54.816Z,1006.51
2022-09-17T06:28:54.996Z,1006.52
2022-09-17T06:29:55.194Z,1006.52
2022-09-17T06:30:55.367Z,1006.53
2022-09-17T06:31:55.727Z,1006.60
2022-09-17T06:32:55.718Z,1006.55
2022-09-17T06:33:58.427Z,1006.53
2022-09-17T06:34:56.057Z,1006.50
2022-09-17T06:35:56.237Z,1006.57
2022-09-17T06:36:56.416Z,1006.54
2022-09-17T06:37:56.566Z,1006.58
2022-09-17T06:38:56.720Z,1006.53
2022-09-17T06:39:56.955Z,1006.52
2022-09-17T06:40:57.069Z,1006.51
2022-09-17T06:41:57.257Z,1006.54
2022-09-17T06:42:57.425Z,1006.53
2022-09-17T06:43:57.707Z,1006.53
2022-09-17T06:44:59.335Z,1006.57
2022-09-17T06:45:57.945Z,1006.55
2022-09-17T06:46:58.171Z,1006.57
2022-09-17T06:47:58.324Z,1006.59
2022-09-17T06:48:58.504Z,1006.53
2022-09-17T06:49:58.657Z,1006.49
2022-09-17T06:50:58.817Z,1006.53
2022-09-17T06:51:59.018Z,1006.48
2022-09-17T06:52:59.160Z,1006.49
2022-09-17T06:53:59.357Z,1006.49
2022-09-17T06:54:59.540Z,1006.54
2022-09-17T06:56:05.311Z,1006.47
2022-09-17T06:57:00.927Z,1006.51
2022-09-17T06:58:00.077Z,1006.49
2022-09-17T06:59:00.338Z,1006.51
2022-09-17T07:00:00.427Z,1006.54
2022-09-17T07:01:00.741Z,1006.49
2022-09-17T07:02:00.859Z,1006.57
2022-09-17T07:03:00.958Z,1006.53
2022-09-17T07:04:01.140Z,1006.59
2022-09-17T07:05:01.306Z,1006.57
2022-09-17T07:06:01.498Z,1006.52
2022-09-17T07:07:01.680Z,1006.55
2022-09-17T07:08:01.858Z,1006.54
2022-09-17T07:09:02.048Z,1006.53
2022-09-17T07:10:02.209Z,1006.51
2022-09-17T07:11:02.377Z,1006.59
2022-09-17T07:12:02.508Z,1006.52
2022-09-17T07:13:02.707Z,1006.50
2022-09-17T07:14:02.907Z,1006.48
2022-09-17T07:15:03.040Z,1006.54
2022-09-17T07:16:03.309Z,1006.55
2022-09-17T07:17:03.358Z,1006.52
2022-09-17T07:18:03.531Z,1006.51
2022-09-17T07:19:03.728Z,1006.50
2022-09-17T07:20:03.883Z,1006.52
2022-09-17T07:21:04.049Z,1006.51
2022-09-17T07:22:04.218Z,1006.51
2022-09-17T07:23:04.369Z,1006.54
2022-09-17T07:24:04.559Z,1006.58
2022-09-17T07:25:04.739Z,1006.59
2022-09-17T07:26:04.949Z,1006.55
2022-09-17T07:27:05.088Z,1006.60
2022-09-17T07:28:05.279Z,1006.63
2022-09-17T07:29:05.429Z,1006.59
2022-09-17T07:30:05.591Z,1006.57
2022-09-17T07:31:05.865Z,1006.57
2022-09-17T07:32:05.942Z,1006.60
2022-09-17T07:33:06.119Z,1006.56
2022-09-17T07:34:06.302Z,1006.60
2022-09-17T07:35:06.479Z,1006.59
2022-09-17T07:36:06.670Z,1006.60
2022-09-17T07:37:06.845Z,1006.58
2022-09-17T07:38:07.011Z,1006.50
2022-09-17T07:39:07.233Z,1006.58
2022-09-17T07:40:07.435Z,1006.64
2022-09-17T07:41:07.570Z,1006.65
2022-09-17T07:42:07.747Z,1006.66
2022-09-17T07:43:07.899Z,1006.65
2022-09-17T07:44:08.075Z,1006.70
2022-09-17T07:45:08.254Z,1006.60
2022-09-17T07:46:08.500Z,1006.56
2022-09-17T07:47:08.601Z,1006.60
2022-09-17T07:48:08.781Z,1006.67
2022-09-17T07:49:08.958Z,1006.63
2022-09-17T07:50:09.141Z,1006.62
2022-09-17T07:51:09.343Z,1006.64
2022-09-17T07:52:09.493Z,1006.63
2022-09-17T07:53:09.673Z,1006.60
2022-09-17T07:54:09.871Z,1006.67
2022-09-17T07:55:10.139Z,1006.68
2022-09-17T07:56:11.983Z,1006.66
2022-09-17T07:57:10.401Z,1006.68
2022-09-17T07:58:10.591Z,1006.66
2022-09-17T07:59:10.771Z,1006.67
2022-09-17T08:00:10.960Z,1006.65
2022-09-17T08:01:11.141Z,1006.72
2022-09-17T08:02:11.411Z,1006.67
2022-09-17T08:03:11.502Z,1006.67
2022-09-17T08:04:11.621Z,1006.72
2022-09-17T08:05:11.802Z,1006.66
2022-09-17T08:06:12.009Z,1006.70
2022-09-17T08:07:12.152Z,1006.71
2022-09-17T08:08:12.331Z,1006.67
2022-09-17T08:09:12.511Z,1006.71
2022-09-17T08:10:12.662Z,1006.63
2022-09-17T08:11:12.846Z,1006.71
2022-09-17T08:12:12.983Z,1006.77
2022-09-17T08:13:13.180Z,1006.66
2022-09-17T08:14:13.362Z,1006.62
2022-09-17T08:15:13.513Z,1006.57
2022-09-17T08:16:13.765Z,1006.65
2022-09-17T08:17:13.882Z,1006.58
2022-09-17T08:18:14.063Z,1006.65
2022-09-17T08:19:14.215Z,1006.60
2022-09-17T08:20:14.392Z,1006.61
2022-09-17T08:21:14.583Z,1006.61
2022-09-17T08:22:14.742Z,1006.55
2022-09-17T08:23:14.964Z,1006.60
2022-09-17T08:24:15.110Z,1006.64
2022-09-17T08:25:15.272Z,1006.61
2022-09-17T08:26:15.461Z,1006.59
2022-09-17T08:27:15.643Z,1006.60
2022-09-17T08:28:15.799Z,1006.67
2022-09-17T08:29:15.963Z,1006.62
2022-09-17T08:30:16.167Z,1006.61
2022-09-17T08:31:16.912Z,1006.74
2022-09-17T08:32:16.539Z,1006.71
2022-09-17T08:33:16.713Z,1006.65
2022-09-17T08:34:16.904Z,1006.67
2022-09-17T08:35:17.074Z,1006.65
2022-09-17T08:36:17.290Z,1006.62
2022-09-17T08:37:17.446Z,1006.60
2022-09-17T08:38:17.606Z,1006.63
2022-09-17T08:39:17.764Z,1006.65
2022-09-17T08:40:17.977Z,1006.64
2022-09-17T08:41:18.135Z,1006.72
2022-09-17T08:42:18.332Z,1006.65
2022-09-17T08:43:18.465Z,1006.68
2022-09-17T08:44:18.655Z,1006.63
2022-09-17T08:45:18.818Z,1006.63
2022-09-17T08:46:19.032Z,1006.63
2022-09-17T08:47:19.186Z,1006.58
2022-09-17T08:48:19.335Z,1006.58
2022-09-17T08:49:19.528Z,1006.60
2022-09-17T08:50:19.727Z,1006.63
2022-09-17T08:51:20.435Z,1006.61
2022-09-17T08:52:20.056Z,1006.51
2022-09-17T08:53:20.216Z,1006.53
2022-09-17T08:54:20.426Z,1006.38
2022-09-17T08:55:20.563Z,1006.55
2022-09-17T08:56:20.776Z,1006.65
2022-09-17T08:57:20.946Z,1006.64
2022-09-17T08:58:21.170Z,1006.64
2022-09-17T08:59:21.895Z,1006.57
2022-09-17T09:00:21.436Z,1006.62
2022-09-17T09:01:21.693Z,1006.57
2022-09-17T09:02:21.917Z,1006.56
2022-09-17T09:03:21.973Z,1006.61
2022-09-17T09:04:22.116Z,1006.59
2022-09-17T09:05:22.285Z,1006.57
2022-09-17T09:06:22.488Z,1006.63
2022-09-17T09:07:22.657Z,1006.60
2022-09-17T09:08:22.866Z,1006.55
2022-09-17T09:09:23.017Z,1006.50
2022-09-17T09:10:23.150Z,1006.57
2022-09-17T09:11:23.387Z,1006.47
2022-09-17T09:12:23.531Z,1006.51
2022-09-17T09:13:23.719Z,1006.50
2022-09-17T09:14:23.879Z,1006.53
2022-09-17T09:15:24.080Z,1006.58
2022-09-17T09:16:24.314Z,1006.54
2022-09-17T09:17:24.437Z,1006.57
2022-09-17T09:18:24.610Z,1006.57
2022-09-17T09:19:24.770Z,1006.59
2022-09-17T09:20:24.953Z,1006.50
2022-09-17T09:21:25.140Z,1006.58
2022-09-17T09:22:25.331Z,1006.51
2022-09-17T09:23:25.511Z,1006.50
2022-09-17T09:24:25.681Z,1006.53
2022-09-17T09:25:25.849Z,1006.53
2022-09-17T09:26:26.012Z,1006.49
2022-09-17T09:27:26.182Z,1006.61
2022-09-17T09:28:26.353Z,1006.58
2022-09-17T09:29:26.543Z,1006.52
2022-09-17T09:30:26.730Z,1006.55
2022-09-17T09:31:26.940Z,1006.49
2022-09-17T09:32:27.074Z,1006.50
2022-09-17T09:33:27.264Z,1006.57
2022-09-17T09:34:27.463Z,1006.62
2022-09-17T09:35:27.636Z,1006.57
2022-09-17T09:36:27.793Z,1006.63
2022-09-17T09:37:27.979Z,1006.69
2022-09-17T09:38:28.144Z,1006.60
2022-09-17T09:39:28.341Z,1006.70
2022-09-17T09:40:28.548Z,1006.67
2022-09-17T09:41:28.685Z,1006.76
2022-09-17T09:42:28.861Z,1006.72
2022-09-17T09:43:41.184Z,1006.72
2022-09-17T09:44:30.215Z,1006.75
2022-09-17T09:45:29.405Z,1006.73
2022-09-17T09:46:29.603Z,1006.77
2022-09-17T09:47:29.759Z,1006.83
2022-09-17T09:48:29.924Z,1006.65
2022-09-17T09:49:30.114Z,1006.69
2022-09-17T09:50:48.359Z,1006.67
2022-09-17T09:51:31.466Z,1006.77
2022-09-17T09:52:30.616Z,1006.79
2022-09-17T09:53:30.788Z,1006.74
2022-09-17T09:54:30.996Z,1006.77
2022-09-17T09:55:31.157Z,1006.69
2022-09-17T09:56:31.327Z,1006.68
2022-09-17T09:57:31.496Z,1006.67
2022-09-17T09:58:31.650Z,1006.76
2022-09-17T09:59:31.807Z,1006.83
2022-09-17T10:00:31.997Z,1006.82
2022-09-17T10:01:32.230Z,1006.84
2022-09-17T10:02:32.431Z,1006.85
2022-09-17T10:03:32.525Z,1006.87
2022-09-17T10:04:32.721Z,1006.95
2022-09-17T10:05:32.878Z,1006.96
2022-09-17T10:06:33.048Z,1006.92
2022-09-17T10:07:33.249Z,1006.95
2022-09-17T10:08:33.418Z,1006.86
2022-09-17T10:09:33.598Z,1006.96
2022-09-17T10:10:33.767Z,1006.99
2022-09-17T10:11:33.966Z,1006.97
2022-09-17T10:12:34.110Z,1006.91
2022-09-17T10:13:34.289Z,1007.01
2022-09-17T10:14:34.476Z,1006.98
2022-09-17T10:15:34.650Z,1007.00
2022-09-17T10:16:34.868Z,1006.97
2022-09-17T10:17:34.970Z,1006.94
2022-09-17T10:18:35.140Z,1007.03
2022-09-17T10:19:35.319Z,1007.01
2022-09-17T10:20:35.509Z,1007.05
2022-09-17T10:21:35.660Z,1007.01
2022-09-17T10:22:35.829Z,1007.06
2022-09-17T10:23:36.020Z,1007.07
2022-09-17T10:24:36.167Z,1007.02
2022-09-17T10:25:36.370Z,1007.01
2022-09-17T10:26:36.541Z,1007.02
2022-09-17T10:27:36.719Z,1007.02
2022-09-17T10:28:36.899Z,1007.03
2022-09-17T10:29:37.060Z,1006.99
2022-09-17T10:30:37.240Z,1007.09
2022-09-17T10:31:37.443Z,1007.01
2022-09-17T10:32:37.581Z,1006.96
2022-09-17T10:33:37.744Z,1007.04
2022-09-17T10:34:37.891Z,1006.98
2022-09-17T10:35:38.091Z,1007.10
2022-09-17T10:36:38.284Z,1007.03
2022-09-17T10:37:38.411Z,1007.12
2022-09-17T10:38:38.591Z,1007.06
2022-09-17T10:39:38.772Z,1007.05
2022-09-17T10:40:39.023Z,1007.09
2022-09-17T10:41:39.117Z,1007.13
2022-09-17T10:42:39.303Z,1007.08
2022-09-17T10:43:39.472Z,1007.12
2022-09-17T10:44:39.631Z,1007.13
2022-09-17T10:45:39.823Z,1007.03
2022-09-17T10:46:39.994Z,1007.07
2022-09-17T10:47:40.152Z,1007.09
2022-09-17T10:48:40.331Z,1007.09
2022-09-17T10:49:40.483Z,1007.08
2022-09-17T10:50:40.691Z,1007.12
2022-09-17T10:51:40.843Z,1007.06
2022-09-17T10:52:41.023Z,1007.11
2022-09-17T10:53:41.203Z,1007.11
2022-09-17T10:54:41.377Z,1007.10
2022-09-17T10:55:41.563Z,1007.02
2022-09-17T10:56:41.743Z,1007.06
2022-09-17T10:57:41.930Z,1007.12
2022-09-17T10:58:42.550Z,1007.21
2022-09-17T10:59:42.274Z,1007.19
2022-09-17T11:00:42.483Z,1007.21
2022-09-17T11:01:42.769Z,1007.28
2022-09-17T11:02:42.856Z,1007.31
2022-09-17T11:03:43.005Z,1007.32
2022-09-17T11:04:43.189Z,1007.41
2022-09-17T11:05:43.374Z,1007.37
2022-09-17T11:06:43.535Z,1007.47
2022-09-17T11:07:43.695Z,1007.38
2022-09-17T11:08:43.884Z,1007.37
2022-09-17T11:09:44.076Z,1007.40
2022-09-17T11:10:44.267Z,1007.39
2022-09-17T11:11:44.442Z,1007.39
2022-09-17T11:12:44.615Z,1007.39
2022-09-17T11:13:44.807Z,1007.41
2022-09-17T11:14:44.971Z,1007.32
2022-09-17T11:15:47.683Z,1007.45
2022-09-17T11:16:46.376Z,1007.32
2022-09-17T11:17:45.493Z,1007.32
2022-09-17T11:18:45.655Z,1007.27
2022-09-17T11:19:45.835Z,1007.22
2022-09-17T11:20:46.025Z,1007.17
2022-09-17T11:21:46.205Z,1007.16
2022-09-17T11:22:46.385Z,1007.17
2022-09-17T11:23:46.640Z,1007.19
2022-09-17T11:24:46.729Z,1007.13
2022-09-17T11:25:46.930Z,1007.29
2022-09-17T11:26:47.065Z,1007.26
2022-09-17T11:27:47.246Z,1007.17
2022-09-17T11:28:47.426Z,1007.21
2022-09-17T11:29:47.606Z,1007.14
2022-09-17T11:30:47.805Z,1007.20
2022-09-17T11:31:47.984Z,1007.14
2022-09-17T11:32:48.128Z,1007.14
2022-09-17T11:33:48.307Z,1007.13
2022-09-17T11:34:48.486Z,1007.12
2022-09-17T11:35:48.687Z,1007.10
2022-09-17T11:36:48.826Z,1007.09
2022-09-17T11:37:49.023Z,1007.12
2022-09-17T11:38:49.208Z,1007.10
2022-09-17T11:39:49.549Z,1007.08
2022-09-17T11:40:49.507Z,1007.11
2022-09-17T11:41:49.687Z,1007.07
2022-09-17T11:42:49.867Z,1007.08
2022-09-17T11:43:50.047Z,1007.04
2022-09-17T11:44:50.227Z,1007.07
2022-09-17T11:45:50.425Z,1007.04
2022-09-17T11:46:50.595Z,1007.02
2022-09-17T11:47:50.797Z,1007.10
2022-09-17T11:48:50.907Z,1007.07
2022-09-17T11:49:51.087Z,1007.00
2022-09-17T11:50:51.285Z,1007.04
2022-09-17T11:51:51.448Z,1007.03
2022-09-17T11:52:51.619Z,1007.04
2022-09-17T11:53:51.809Z,1006.92
2022-09-17T11:54:51.988Z,1006.94
2022-09-17T11:55:52.188Z,1006.94
2022-09-17T11:56:52.321Z,1006.92
2022-09-17T11:57:52.506Z,1006.93
2022-09-17T11:58:52.679Z,1006.91
2022-09-17T11:59:52.868Z,1006.88
2022-09-17T12:00:53.061Z,1006.96
2022-09-17T12:01:53.259Z,1006.97
2022-09-17T12:02:53.426Z,1006.89
2022-09-17T12:03:53.560Z,1006.99
2022-09-17T12:04:53.741Z,1007.04
2022-09-17T12:05:53.940Z,1007.04
2022-09-17T12:06:54.088Z,1007.01
2022-09-17T12:07:54.259Z,1006.98